CheckWX is a tool to help pilots better visualize weather data.  It is not intended as a substitute for an official pre-flight weather briefing.

20:30:52 UTC

RJGG TAF
Chubu Centrair International Airport
Tokoname, Japan
TAF RJGG 251709Z 2518/2700 12008KT 9999 FEW020 TEMPO 2609/2612 3000 SHRA BR FEW005 BKN008 TEMPO 2612/2618 4000 -SHRA BR TEMPO 2618/2700 3000 SHRA BR FEW005 BKN008

Jun-25@
18:00 UTC

Jun-25 @ 18:00 UTC

Jun-27@
00:00 UTC

Jun-27 @ 00:00 UTC

TAF RJGG 251709Z 2518/2700 12008KT 9999 FEW020
Wind
  • 120° at 8 KTS
Cloud Levels
  • Few at 2,000' AGL

Jun-26@
09:00 UTC

Jun-26 @ 09:00 UTC

Jun-26@
12:00 UTC

Jun-26 @ 12:00 UTC

TEMPO 2609/2612 3000 SHRA BR FEW005 BKN008

Temporary

Temporary Changes expected for less than half the time period

Conditions
Rain, Mist
Cloud Levels
  • Few at 500' AGL
  • Broken at 800' AGL

Jun-26@
12:00 UTC

Jun-26 @ 12:00 UTC

Jun-26@
18:00 UTC

Jun-26 @ 18:00 UTC

TEMPO 2612/2618 4000 -SHRA BR

Temporary

Temporary Changes expected for less than half the time period

Conditions
Light Rain, Mist

Jun-26@
18:00 UTC

Jun-26 @ 18:00 UTC

Jun-27@
00:00 UTC

Jun-27 @ 00:00 UTC

TEMPO 2618/2700 3000 SHRA BR FEW005 BKN008

Temporary

Temporary Changes expected for less than half the time period

Conditions
Rain, Mist
Cloud Levels
  • Few at 500' AGL
  • Broken at 800' AGL